createdAt,value
2022-10-14T00:00:02.444Z,11.23
2022-10-14T00:02:28.969Z,12.60
2022-10-14T00:04:55.596Z,11.20
2022-10-14T00:07:22.702Z,13.80
2022-10-14T00:09:49.671Z,9.23
2022-10-14T00:12:16.205Z,10.02
2022-10-14T00:14:42.788Z,10.98
2022-10-14T00:17:09.347Z,9.73
2022-10-14T00:19:35.917Z,8.43
2022-10-14T00:22:02.528Z,10.10
2022-10-14T00:24:29.082Z,11.93
2022-10-14T00:26:55.725Z,10.55
2022-10-14T00:29:22.403Z,11.35
2022-10-14T00:31:49.215Z,8.60
2022-10-14T00:34:16.032Z,12.02
2022-10-14T00:36:43.561Z,12.05
2022-10-14T00:39:10.984Z,13.05
2022-10-14T00:41:38.152Z,12.57
2022-10-14T00:44:10.531Z,11.90
2022-10-14T00:46:48.194Z,11.02
2022-10-14T00:49:24.793Z,10.50
2022-10-14T00:51:55.405Z,11.82
2022-10-14T00:54:27.350Z,8.77
2022-10-14T00:56:54.023Z,10.73
2022-10-14T00:59:20.890Z,10.15
2022-10-14T01:01:47.604Z,12.50
2022-10-14T01:04:14.177Z,9.80
2022-10-14T01:06:43.511Z,17.13
2022-10-14T01:09:22.440Z,9.82
2022-10-14T01:12:28.065Z,11.13
2022-10-14T01:15:11.128Z,14.00
2022-10-14T01:18:11.666Z,9.48
2022-10-14T01:21:02.962Z,11.50
2022-10-14T01:26:33.797Z,13.32
2022-10-14T01:29:03.307Z,13.60
2022-10-14T01:31:36.387Z,11.95
2022-10-14T01:34:10.219Z,13.93
2022-10-14T01:36:43.848Z,17.27
2022-10-14T01:39:13.285Z,14.45
2022-10-14T01:41:45.475Z,18.90
2022-10-14T01:44:14.301Z,11.45
2022-10-14T01:46:45.624Z,17.30
2022-10-14T01:49:24.144Z,21.10
2022-10-14T01:51:59.608Z,19.70
2022-10-14T01:54:37.846Z,15.60
2022-10-14T01:57:09.658Z,14.70
2022-10-14T01:59:38.730Z,16.88
2022-10-14T02:02:05.354Z,17.38
2022-10-14T02:04:32.007Z,13.30
2022-10-14T02:07:16.856Z,12.52
2022-10-14T02:09:49.780Z,11.95
2022-10-14T02:12:34.639Z,14.10
2022-10-14T02:15:19.971Z,13.48
2022-10-14T02:18:05.463Z,16.55
2022-10-14T02:20:41.499Z,16.23
2022-10-14T02:23:21.796Z,15.80
2022-10-14T02:25:51.413Z,17.05
2022-10-14T02:28:25.292Z,18.80
2022-10-14T02:30:57.350Z,20.63
2022-10-14T02:33:31.038Z,13.85
2022-10-14T02:35:58.077Z,16.65
2022-10-14T02:38:25.812Z,17.50
2022-10-14T02:40:52.611Z,17.60
2022-10-14T02:43:19.214Z,14.05
2022-10-14T02:45:45.727Z,15.80
2022-10-14T02:48:13.195Z,15.20
2022-10-14T02:50:41.129Z,17.80
2022-10-14T02:53:07.706Z,15.57
2022-10-14T02:55:34.222Z,17.05
2022-10-14T02:58:00.789Z,13.02
2022-10-14T03:00:27.367Z,19.80
2022-10-14T03:02:53.882Z,17.67
2022-10-14T03:05:20.449Z,18.67
2022-10-14T03:07:46.978Z,17.63
2022-10-14T03:10:13.626Z,20.27
2022-10-14T03:12:40.211Z,19.58
2022-10-14T03:15:07.678Z,22.48
2022-10-14T03:17:34.218Z,19.63
2022-10-14T03:20:00.828Z,18.95
2022-10-14T03:22:27.401Z,18.05
2022-10-14T03:24:53.933Z,20.60
2022-10-14T03:27:20.525Z,20.50
2022-10-14T03:29:47.238Z,15.80
2022-10-14T03:32:13.750Z,23.40
2022-10-14T03:34:40.305Z,18.20
2022-10-14T03:37:07.765Z,24.83
2022-10-14T03:39:34.338Z,15.70
2022-10-14T03:42:00.928Z,19.27
2022-10-14T03:44:27.469Z,17.33
2022-10-14T03:46:53.998Z,18.45
2022-10-14T03:49:20.575Z,20.40
2022-10-14T03:51:47.118Z,22.00
2022-10-14T03:54:13.702Z,17.00
2022-10-14T03:56:40.261Z,16.98
2022-10-14T03:59:06.872Z,21.60
2022-10-14T04:01:33.505Z,19.42
2022-10-14T04:04:00.096Z,27.95
2022-10-14T04:06:26.932Z,19.88
2022-10-14T04:08:53.502Z,18.73
2022-10-14T04:11:20.066Z,26.40
2022-10-14T04:13:46.676Z,22.48
2022-10-14T04:16:13.287Z,19.95
2022-10-14T04:18:40.225Z,20.25
2022-10-14T04:21:10.943Z,18.25
2022-10-14T04:23:37.952Z,23.20
2022-10-14T04:26:06.248Z,18.38
2022-10-14T04:28:33.755Z,23.55
2022-10-14T04:31:00.534Z,17.90
2022-10-14T04:33:27.202Z,26.27
2022-10-14T04:36:01.571Z,21.58
2022-10-14T04:38:29.241Z,18.92
2022-10-14T04:40:56.507Z,15.85
2022-10-14T04:43:23.257Z,20.83
2022-10-14T04:45:50.472Z,19.73
2022-10-14T04:48:18.292Z,20.50
2022-10-14T04:50:45.119Z,19.10
2022-10-14T04:53:13.664Z,19.65
2022-10-14T04:55:41.001Z,28.98
2022-10-14T04:58:07.628Z,19.70
2022-10-14T05:00:34.221Z,20.52
2022-10-14T05:03:00.758Z,19.00
2022-10-14T05:05:27.331Z,21.67
2022-10-14T05:07:53.905Z,17.23
2022-10-14T05:10:20.482Z,17.63
2022-10-14T05:12:47.292Z,20.42
2022-10-14T05:15:13.938Z,19.05
2022-10-14T05:17:41.188Z,18.85
2022-10-14T05:20:08.171Z,21.45
2022-10-14T05:22:34.919Z,19.48
2022-10-14T05:25:01.457Z,21.83
2022-10-14T05:27:28.044Z,20.42
2022-10-14T05:29:54.796Z,18.52
2022-10-14T05:32:21.565Z,23.67
2022-10-14T05:34:48.278Z,20.85
2022-10-14T05:37:14.831Z,20.23
2022-10-14T05:39:41.600Z,17.60
2022-10-14T05:42:08.117Z,19.00
2022-10-14T05:44:34.765Z,17.40
2022-10-14T05:47:01.280Z,18.35
2022-10-14T05:49:27.829Z,20.90
2022-10-14T05:51:54.533Z,22.38
2022-10-14T05:54:21.109Z,22.90
2022-10-14T05:56:47.720Z,17.23
2022-10-14T05:59:14.365Z,24.80
2022-10-14T06:01:41.144Z,20.75
2022-10-14T06:04:08.093Z,17.55
2022-10-14T06:06:34.680Z,20.67
2022-10-14T06:09:01.232Z,24.15
2022-10-14T06:11:27.944Z,17.50
2022-10-14T06:13:54.512Z,21.48
2022-10-14T06:16:21.182Z,21.33
2022-10-14T06:18:51.060Z,17.77
2022-10-14T06:21:20.839Z,18.27
2022-10-14T06:23:47.422Z,18.33
2022-10-14T06:26:13.994Z,19.60
2022-10-14T06:28:40.891Z,19.02
2022-10-14T06:31:07.499Z,19.45
2022-10-14T06:33:34.673Z,19.08
2022-10-14T06:36:05.894Z,24.52
2022-10-14T06:38:32.871Z,21.50
2022-10-14T06:40:59.413Z,20.13
2022-10-14T06:43:25.967Z,20.70
2022-10-14T06:45:52.850Z,20.73
2022-10-14T06:48:19.425Z,21.00
2022-10-14T06:50:46.015Z,22.58
2022-10-14T06:53:12.595Z,23.08
2022-10-14T06:55:39.168Z,24.65
2022-10-14T06:58:05.899Z,22.05
2022-10-14T07:00:32.432Z,23.58
2022-10-14T07:02:59.519Z,16.85
2022-10-14T07:05:27.007Z,20.83
2022-10-14T07:07:53.696Z,20.75
2022-10-14T07:10:20.391Z,20.00
2022-10-14T07:12:46.952Z,18.58
2022-10-14T07:15:13.699Z,17.70
2022-10-14T07:17:40.362Z,15.35
2022-10-14T07:20:07.598Z,20.17
2022-10-14T07:22:38.638Z,16.27
2022-10-14T07:25:06.709Z,17.40
2022-10-14T07:27:33.587Z,14.48
2022-10-14T07:30:01.605Z,15.45
2022-10-14T07:32:28.455Z,17.58
2022-10-14T07:34:55.181Z,16.30
2022-10-14T07:37:22.099Z,16.45
2022-10-14T07:39:49.345Z,13.50
2022-10-14T07:42:15.977Z,12.98
2022-10-14T07:44:42.551Z,12.05
2022-10-14T07:47:09.247Z,16.60
2022-10-14T07:49:35.817Z,16.08
2022-10-14T07:52:02.419Z,15.93
2022-10-14T07:54:31.068Z,18.73
2022-10-14T07:56:59.193Z,16.08
2022-10-14T07:59:26.071Z,17.30
2022-10-14T08:01:53.568Z,18.90
2022-10-14T08:04:20.439Z,13.82
2022-10-14T08:06:48.699Z,14.07
2022-10-14T08:09:15.457Z,16.75
2022-10-14T08:11:43.406Z,13.13
2022-10-14T08:14:10.033Z,16.25
2022-10-14T08:16:37.309Z,15.23
2022-10-14T08:19:10.966Z,12.32
2022-10-14T08:21:41.499Z,15.48
2022-10-14T08:24:08.474Z,17.38
2022-10-14T08:26:40.183Z,14.65
2022-10-14T08:29:10.892Z,11.13
2022-10-14T08:31:37.480Z,10.10
2022-10-14T08:34:04.184Z,10.82
2022-10-14T08:36:30.807Z,11.77
2022-10-14T08:38:57.379Z,11.95
2022-10-14T08:41:33.063Z,13.75
2022-10-14T08:43:59.532Z,12.82
2022-10-14T08:46:51.162Z,9.50
2022-10-14T08:50:01.562Z,11.55
2022-10-14T08:52:37.561Z,9.82
2022-10-14T08:55:27.635Z,11.93
2022-10-14T08:58:10.520Z,11.00
2022-10-14T09:00:40.544Z,8.82
2022-10-14T09:03:16.827Z,10.35
2022-10-14T09:05:44.197Z,9.63
2022-10-14T09:08:15.773Z,7.00
2022-10-14T09:10:44.005Z,9.55
2022-10-14T09:13:27.643Z,7.95
2022-10-14T09:16:03.976Z,10.20
2022-10-14T09:18:42.240Z,7.13
2022-10-14T09:21:48.062Z,7.60
2022-10-14T09:24:20.679Z,9.88
2022-10-14T09:27:18.159Z,6.10
2022-10-14T09:29:57.224Z,7.25
2022-10-14T09:32:30.803Z,5.13
2022-10-14T09:34:59.092Z,6.13
2022-10-14T09:37:36.892Z,4.22
2022-10-14T09:40:09.265Z,4.47
2022-10-14T09:42:41.617Z,4.13
2022-10-14T09:45:12.794Z,3.65
2022-10-14T09:47:45.948Z,6.18
2022-10-14T09:50:22.554Z,3.13
2022-10-14T09:52:53.056Z,6.35
2022-10-14T09:55:24.315Z,5.00
2022-10-14T09:58:04.046Z,3.58
2022-10-14T10:00:32.560Z,4.50
2022-10-14T10:02:59.124Z,3.78
2022-10-14T10:05:29.924Z,3.17
2022-10-14T10:08:07.306Z,6.13
2022-10-14T10:10:36.715Z,4.07
2022-10-14T10:13:03.548Z,4.55
2022-10-14T10:15:30.189Z,4.85
2022-10-14T10:17:57.027Z,5.40
2022-10-14T10:20:33.637Z,5.15
2022-10-14T10:23:27.009Z,3.97
2022-10-14T10:25:53.559Z,6.07
2022-10-14T10:28:32.129Z,5.70
2022-10-14T10:31:19.418Z,8.40
2022-10-14T10:34:28.013Z,5.07
2022-10-14T10:37:05.188Z,4.50
2022-10-14T10:39:56.233Z,8.25
2022-10-14T10:42:28.806Z,8.25
2022-10-14T10:45:01.461Z,5.68
2022-10-14T10:47:46.134Z,4.32
2022-10-14T10:50:43.662Z,6.38
2022-10-14T10:53:17.452Z,4.55
2022-10-14T10:56:21.689Z,6.50
2022-10-14T10:59:21.758Z,6.30
2022-10-14T11:02:13.949Z,7.90
2022-10-14T11:05:08.042Z,6.78
2022-10-14T11:08:14.380Z,5.82
2022-10-14T11:11:25.066Z,8.48
2022-10-14T11:13:56.792Z,5.70
2022-10-14T11:16:39.228Z,5.57
2022-10-14T11:19:28.635Z,4.75
2022-10-14T11:22:04.714Z,4.25
2022-10-14T11:24:34.434Z,4.38
2022-10-14T11:27:08.564Z,4.28
2022-10-14T11:29:57.804Z,5.63
2022-10-14T11:32:44.404Z,6.50
2022-10-14T11:35:29.836Z,3.40
2022-10-14T11:38:17.825Z,3.95
2022-10-14T11:41:23.335Z,5.53
2022-10-14T11:44:20.357Z,6.05
2022-10-14T11:46:56.405Z,12.15
2022-10-14T11:49:29.673Z,7.25
2022-10-14T11:52:02.996Z,7.45
2022-10-14T11:54:51.760Z,7.13
2022-10-14T11:57:30.110Z,6.70
2022-10-14T12:00:08.711Z,7.60
2022-10-14T12:03:13.183Z,6.03
2022-10-14T12:06:04.533Z,6.53
2022-10-14T12:08:58.674Z,5.88
2022-10-14T12:11:43.560Z,6.30
2022-10-14T12:14:24.715Z,7.93
2022-10-14T12:19:24.849Z,6.50
2022-10-14T12:22:05.782Z,7.80
2022-10-14T12:24:41.235Z,5.57
2022-10-14T12:27:12.731Z,6.13
2022-10-14T12:29:50.982Z,7.40
2022-10-14T12:32:22.219Z,6.22
2022-10-14T12:34:53.672Z,5.00
2022-10-14T12:37:31.620Z,6.93
2022-10-14T12:40:07.602Z,4.88
2022-10-14T12:42:38.679Z,7.88
2022-10-14T12:45:16.767Z,5.72
2022-10-14T12:47:44.049Z,8.75
2022-10-14T12:50:17.707Z,6.00
2022-10-14T12:52:48.165Z,5.40
2022-10-14T12:55:22.221Z,8.05
2022-10-14T12:57:59.315Z,7.03
2022-10-14T13:00:25.830Z,9.45
2022-10-14T13:03:03.564Z,7.97
2022-10-14T13:05:40.182Z,6.03
2022-10-14T13:08:27.917Z,9.15
2022-10-14T13:10:54.465Z,6.38
2022-10-14T13:13:42.326Z,9.02
2022-10-14T13:16:10.784Z,15.95
2022-10-14T13:18:43.398Z,11.07
2022-10-14T13:21:39.123Z,7.28
2022-10-14T13:24:20.942Z,7.35
2022-10-14T13:26:53.526Z,6.00
2022-10-14T13:29:20.009Z,5.47
2022-10-14T13:32:04.280Z,6.25
2022-10-14T13:34:56.700Z,6.45
2022-10-14T13:37:45.554Z,5.18
2022-10-14T13:40:42.085Z,5.72
2022-10-14T13:43:17.082Z,6.25
2022-10-14T13:45:45.602Z,6.07
2022-10-14T13:48:18.775Z,6.72
2022-10-14T13:50:50.368Z,6.88
2022-10-14T13:53:21.001Z,4.22
2022-10-14T13:55:54.669Z,4.00
2022-10-14T13:58:23.047Z,6.68
2022-10-14T14:01:00.720Z,9.93
2022-10-14T14:03:37.021Z,6.35
2022-10-14T14:06:10.976Z,6.68
2022-10-14T14:08:46.713Z,3.63
2022-10-14T14:11:23.747Z,4.20
2022-10-14T14:14:08.014Z,4.85
2022-10-14T14:16:40.268Z,5.30
2022-10-14T14:19:17.479Z,6.15
2022-10-14T14:21:44.203Z,3.88
2022-10-14T14:24:25.471Z,3.90
2022-10-14T14:26:54.309Z,3.00
2022-10-14T14:29:25.396Z,3.40
2022-10-14T14:32:06.001Z,4.55
2022-10-14T14:34:35.726Z,4.63
2022-10-14T14:37:16.599Z,2.67
2022-10-14T14:40:04.588Z,4.20
2022-10-14T14:42:39.478Z,3.78
2022-10-14T14:45:20.548Z,15.45
2022-10-14T14:50:33.739Z,3.63
2022-10-14T14:53:10.059Z,3.22
2022-10-14T14:55:54.860Z,4.85
2022-10-14T14:58:23.965Z,3.28
2022-10-14T15:00:51.684Z,2.90
2022-10-14T15:03:18.287Z,4.82
2022-10-14T15:05:55.376Z,2.72
2022-10-14T15:08:24.178Z,3.42
2022-10-14T15:10:53.550Z,4.57
2022-10-14T15:13:30.838Z,4.03
2022-10-14T15:15:57.642Z,3.03
2022-10-14T15:18:29.030Z,2.47
2022-10-14T15:21:12.262Z,4.25
2022-10-14T15:23:46.084Z,4.53
2022-10-14T15:26:27.792Z,5.15
2022-10-14T15:29:17.911Z,6.88
2022-10-14T15:32:21.244Z,2.35
2022-10-14T15:34:50.363Z,3.05
2022-10-14T15:37:16.894Z,4.68
2022-10-14T15:39:43.464Z,5.38
2022-10-14T15:42:12.950Z,2.97
2022-10-14T15:44:39.479Z,4.40
2022-10-14T15:47:21.004Z,3.35
2022-10-14T15:49:47.829Z,3.90
2022-10-14T15:52:17.808Z,3.95
2022-10-14T15:54:46.667Z,3.10
2022-10-14T15:57:15.710Z,3.83
2022-10-14T15:59:43.331Z,6.80
2022-10-14T16:02:32.863Z,3.70
2022-10-14T16:07:45.952Z,6.75
2022-10-14T16:10:15.632Z,5.47
2022-10-14T16:12:42.175Z,9.10
2022-10-14T16:15:51.535Z,4.82
2022-10-14T16:18:18.292Z,4.25
2022-10-14T16:20:45.812Z,8.38
2022-10-14T16:23:19.583Z,15.05
2022-10-14T16:25:49.225Z,24.58
2022-10-14T16:28:19.435Z,18.45
2022-10-14T16:30:50.396Z,5.47
2022-10-14T16:33:22.023Z,4.68
2022-10-14T16:35:56.646Z,8.75
2022-10-14T16:38:24.345Z,6.15
2022-10-14T16:40:58.570Z,4.78
2022-10-14T16:43:25.708Z,13.13
2022-10-14T16:45:52.336Z,9.73
2022-10-14T16:48:19.424Z,4.30
2022-10-14T16:50:53.634Z,3.17
2022-10-14T16:53:39.152Z,10.40
2022-10-14T16:56:28.125Z,9.27
2022-10-14T16:58:54.723Z,19.00
2022-10-14T17:01:21.310Z,22.05
2022-10-14T17:03:47.880Z,26.00
2022-10-14T17:06:14.567Z,39.83
2022-10-14T17:08:41.708Z,28.25
2022-10-14T17:11:09.940Z,9.75
2022-10-14T17:13:36.518Z,7.63
2022-10-14T17:16:05.338Z,7.55
2022-10-14T17:18:34.887Z,4.82
2022-10-14T17:21:12.253Z,6.05
2022-10-14T17:23:43.751Z,8.95
2022-10-14T17:26:13.111Z,8.00
2022-10-14T17:28:40.993Z,6.10
2022-10-14T17:31:13.287Z,10.50
2022-10-14T17:33:40.585Z,10.15
2022-10-14T17:36:08.218Z,6.10
2022-10-14T17:38:35.528Z,8.02
2022-10-14T17:41:10.840Z,6.15
2022-10-14T17:43:38.402Z,7.57
2022-10-14T17:46:11.528Z,11.57
2022-10-14T17:48:42.956Z,9.15
2022-10-14T17:51:11.135Z,9.05
2022-10-14T17:53:38.383Z,11.73
2022-10-14T17:56:09.468Z,5.68
2022-10-14T18:01:16.056Z,5.75
2022-10-14T18:03:44.569Z,5.37
2022-10-14T18:06:20.879Z,8.88
2022-10-14T18:08:58.372Z,4.80
2022-10-14T18:11:25.374Z,5.55
2022-10-14T18:13:58.119Z,9.93
2022-10-14T18:16:27.362Z,6.38
2022-10-14T18:18:54.671Z,9.57
2022-10-14T18:21:22.022Z,8.65
2022-10-14T18:23:49.640Z,6.25
2022-10-14T18:26:19.021Z,4.75
2022-10-14T18:28:48.562Z,16.42
2022-10-14T18:31:20.997Z,8.05
2022-10-14T18:33:48.443Z,14.30
2022-10-14T18:36:22.800Z,8.05
2022-10-14T18:39:00.800Z,6.53
2022-10-14T18:41:28.237Z,7.55
2022-10-14T18:43:57.934Z,3.60
2022-10-14T18:46:30.118Z,4.07
2022-10-14T18:48:58.459Z,2.78
2022-10-14T18:51:27.819Z,3.22
2022-10-14T18:53:57.643Z,2.92
2022-10-14T18:56:27.438Z,4.38
2022-10-14T18:58:59.743Z,9.20
2022-10-14T19:01:27.450Z,5.93
2022-10-14T19:03:54.362Z,3.22
2022-10-14T19:06:22.609Z,5.10
2022-10-14T19:08:49.930Z,7.05
2022-10-14T19:11:24.565Z,4.60
2022-10-14T19:13:53.610Z,3.80
2022-10-14T19:16:28.240Z,3.13
2022-10-14T19:18:56.732Z,4.65
2022-10-14T19:21:26.558Z,2.25
2022-10-14T19:23:53.107Z,4.25
2022-10-14T19:26:22.011Z,8.20
2022-10-14T19:28:49.847Z,3.58
2022-10-14T19:31:23.112Z,4.60
2022-10-14T19:33:49.697Z,3.83
2022-10-14T19:36:17.502Z,6.88
2022-10-14T19:38:57.930Z,1.63
2022-10-14T19:41:26.060Z,2.72
2022-10-14T19:43:56.074Z,4.00
2022-10-14T19:46:26.567Z,10.23
2022-10-14T19:48:56.044Z,6.53
2022-10-14T19:51:23.435Z,8.80
2022-10-14T19:53:50.098Z,3.38
2022-10-14T19:56:16.632Z,7.00
2022-10-14T19:58:44.856Z,3.83
2022-10-14T20:01:16.826Z,4.97
2022-10-14T20:03:44.125Z,6.25
2022-10-14T20:06:12.056Z,4.78
2022-10-14T20:08:39.618Z,6.50
2022-10-14T20:11:08.098Z,5.18
2022-10-14T20:13:34.765Z,4.22
2022-10-14T20:16:02.385Z,3.63
2022-10-14T20:18:29.994Z,7.00
2022-10-14T20:20:57.338Z,4.97
2022-10-14T20:23:25.260Z,5.28
2022-10-14T20:25:51.995Z,5.03
2022-10-14T20:28:19.673Z,10.00
2022-10-14T20:30:47.966Z,4.82
2022-10-14T20:33:14.667Z,5.70
2022-10-14T20:35:41.267Z,4.20
2022-10-14T20:38:07.908Z,3.45
2022-10-14T20:40:35.960Z,5.82
2022-10-14T20:43:03.231Z,4.32
2022-10-14T20:45:29.856Z,7.30
2022-10-14T20:47:56.605Z,4.30
2022-10-14T20:50:23.142Z,8.13
2022-10-14T20:52:49.818Z,3.72
2022-10-14T20:55:16.372Z,6.03
2022-10-14T20:57:42.943Z,4.18
2022-10-14T21:00:10.153Z,3.42
2022-10-14T21:02:36.828Z,3.60
2022-10-14T21:05:03.685Z,3.03
2022-10-14T21:07:30.263Z,3.17
2022-10-14T21:09:56.836Z,4.35
2022-10-14T21:12:23.664Z,5.43
2022-10-14T21:14:50.642Z,4.32
2022-10-14T21:17:17.439Z,3.38
2022-10-14T21:19:44.015Z,4.15
2022-10-14T21:22:10.592Z,3.08
2022-10-14T21:24:41.021Z,8.85
2022-10-14T21:27:07.904Z,3.03
2022-10-14T21:29:34.464Z,4.47
2022-10-14T21:32:02.536Z,2.58
2022-10-14T21:34:30.152Z,4.40
2022-10-14T21:36:57.042Z,2.97
2022-10-14T21:39:26.389Z,3.00
2022-10-14T21:41:53.157Z,2.80
2022-10-14T21:44:20.932Z,3.13
2022-10-14T21:46:48.338Z,2.67
2022-10-14T21:49:15.536Z,3.00
2022-10-14T21:51:42.182Z,3.00
2022-10-14T21:54:12.176Z,2.42
2022-10-14T21:56:39.230Z,2.10
2022-10-14T21:59:06.810Z,3.45
2022-10-14T22:01:33.463Z,4.82
2022-10-14T22:04:03.831Z,2.63
2022-10-14T22:06:32.240Z,2.35
2022-10-14T22:09:00.530Z,3.20
2022-10-14T22:11:33.341Z,3.33
2022-10-14T22:14:02.019Z,2.90
2022-10-14T22:16:29.396Z,3.05
2022-10-14T22:18:59.699Z,3.10
2022-10-14T22:21:28.383Z,6.05
2022-10-14T22:23:55.014Z,6.50
2022-10-14T22:26:24.361Z,4.63
2022-10-14T22:28:57.768Z,3.38
2022-10-14T22:31:25.519Z,2.97
2022-10-14T22:33:52.090Z,2.03
2022-10-14T22:36:24.522Z,3.80
2022-10-14T22:38:53.415Z,3.50
2022-10-14T22:41:21.334Z,2.45
2022-10-14T22:43:49.915Z,2.50
2022-10-14T22:46:20.132Z,3.45
2022-10-14T22:48:48.670Z,3.80
2022-10-14T22:51:18.090Z,2.58
2022-10-14T22:53:45.901Z,4.15
2022-10-14T22:56:15.321Z,3.08
2022-10-14T22:58:42.235Z,3.25
2022-10-14T23:01:14.891Z,3.15
2022-10-14T23:03:42.187Z,3.17
2022-10-14T23:06:11.695Z,8.13
2022-10-14T23:08:39.290Z,2.17
2022-10-14T23:11:06.264Z,2.85
2022-10-14T23:13:33.434Z,2.83
2022-10-14T23:16:03.357Z,3.60
2022-10-14T23:18:32.681Z,4.35
2022-10-14T23:20:59.309Z,4.30
2022-10-14T23:23:25.922Z,5.00
2022-10-14T23:25:52.517Z,3.58
2022-10-14T23:28:19.121Z,4.88
2022-10-14T23:30:45.758Z,4.35
2022-10-14T23:33:12.600Z,4.28
2022-10-14T23:35:39.180Z,4.80
2022-10-14T23:38:05.786Z,4.35
2022-10-14T23:40:32.820Z,4.32
2022-10-14T23:42:59.537Z,3.22
2022-10-14T23:45:26.110Z,5.07
2022-10-14T23:47:52.732Z,4.53
2022-10-14T23:50:19.269Z,14.98
2022-10-14T23:52:46.043Z,6.57
2022-10-14T23:55:13.310Z,13.13
2022-10-14T23:57:40.389Z,3.78
